sensor_id;sensor_type;location;lat;lon;timestamp;pressure;altitude;pressure_sealevel;temperature;humidity
57606;BME280;43430;48.204;11.556;2023-04-30T00:01:57;96216.94;;;9.83;100.00
57606;BME280;43430;48.204;11.556;2023-04-30T00:04:23;96212.34;;;9.72;100.00
57606;BME280;43430;48.204;11.556;2023-04-30T00:06:48;96215.94;;;9.84;100.00
57606;BME280;43430;48.204;11.556;2023-04-30T00:09:13;96219.75;;;9.95;100.00
57606;BME280;43430;48.204;11.556;2023-04-30T00:11:39;96215.84;;;9.97;100.00
57606;BME280;43430;48.204;11.556;2023-04-30T00:14:04;96221.94;;;9.98;100.00
57606;BME280;43430;48.204;11.556;2023-04-30T00:16:29;96225.19;;;9.93;100.00
57606;BME280;43430;48.204;11.556;2023-04-30T00:18:55;96222.81;;;9.85;100.00
57606;BME280;43430;48.204;11.556;2023-04-30T00:21:20;96224.44;;;9.86;100.00
57606;BME280;43430;48.204;11.556;2023-04-30T00:23:45;96219.59;;;9.83;100.00
57606;BME280;43430;48.204;11.556;2023-04-30T00:26:11;96224.47;;;9.80;100.00
57606;BME280;43430;48.204;11.556;2023-04-30T00:28:36;96230.13;;;9.83;100.00
57606;BME280;43430;48.204;11.556;2023-04-30T00:31:01;96220.38;;;9.84;100.00
57606;BME280;43430;48.204;11.556;2023-04-30T00:33:27;96223.03;;;9.84;100.00
57606;BME280;43430;48.204;11.556;2023-04-30T00:35:52;96224.06;;;9.76;100.00
57606;BME280;43430;48.204;11.556;2023-04-30T00:38:18;96224.84;;;9.83;100.00
57606;BME280;43430;48.204;11.556;2023-04-30T00:40:43;96220.22;;;9.79;100.00
57606;BME280;43430;48.204;11.556;2023-04-30T00:43:09;96234.19;;;9.79;100.00
57606;BME280;43430;48.204;11.556;2023-04-30T00:45:34;96232.38;;;9.80;100.00
57606;BME280;43430;48.204;11.556;2023-04-30T00:48:00;96229.72;;;9.80;100.00
57606;BME280;43430;48.204;11.556;2023-04-30T00:50:25;96229.34;;;9.76;100.00
57606;BME280;43430;48.204;11.556;2023-04-30T00:52:50;96223.91;;;9.71;100.00
57606;BME280;43430;48.204;11.556;2023-04-30T00:55:16;96230.59;;;9.67;100.00
57606;BME280;43430;48.204;11.556;2023-04-30T00:57:42;96219.88;;;9.68;100.00
57606;BME280;43430;48.204;11.556;2023-04-30T01:00:08;96231.03;;;9.64;100.00
57606;BME280;43430;48.204;11.556;2023-04-30T01:02:36;96229.41;;;9.63;100.00
57606;BME280;43430;48.204;11.556;2023-04-30T01:05:02;96233.03;;;9.68;100.00
57606;BME280;43430;48.204;11.556;2023-04-30T01:07:29;96242.34;;;9.71;100.00
57606;BME280;43430;48.204;11.556;2023-04-30T01:09:54;96238.31;;;9.68;100.00
57606;BME280;43430;48.204;11.556;2023-04-30T01:12:40;96252.66;;;9.72;100.00
57606;BME280;43430;48.204;11.556;2023-04-30T01:15:28;96252.25;;;9.69;100.00
57606;BME280;43430;48.204;11.556;2023-04-30T01:18:17;96248.19;;;9.73;100.00
57606;BME280;43430;48.204;11.556;2023-04-30T01:20:49;96239.09;;;9.69;100.00
57606;BME280;43430;48.204;11.556;2023-04-30T01:28:52;96259.34;;;9.68;100.00
57606;BME280;43430;48.204;11.556;2023-04-30T01:31:18;96257.13;;;9.72;100.00
57606;BME280;43430;48.204;11.556;2023-04-30T01:33:44;96252.25;;;9.75;100.00
57606;BME280;43430;48.204;11.556;2023-04-30T01:36:36;96253.66;;;9.78;100.00
57606;BME280;43430;48.204;11.556;2023-04-30T01:41:35;96257.50;;;9.75;100.00
57606;BME280;43430;48.204;11.556;2023-04-30T01:46:40;96259.38;;;9.62;100.00
57606;BME280;43430;48.204;11.556;2023-04-30T01:52:11;96254.78;;;9.50;100.00
57606;BME280;43430;48.204;11.556;2023-04-30T01:54:51;96257.41;;;9.50;100.00
57606;BME280;43430;48.204;11.556;2023-04-30T01:57:28;96262.44;;;9.52;100.00
57606;BME280;43430;48.204;11.556;2023-04-30T01:59:53;96267.31;;;9.55;100.00
57606;BME280;43430;48.204;11.556;2023-04-30T02:02:19;96260.63;;;9.52;100.00
57606;BME280;43430;48.204;11.556;2023-04-30T02:04:44;96260.63;;;9.52;100.00
57606;BME280;43430;48.204;11.556;2023-04-30T02:07:12;96263.66;;;9.49;100.00
57606;BME280;43430;48.204;11.556;2023-04-30T02:09:41;96263.28;;;9.39;100.00
57606;BME280;43430;48.204;11.556;2023-04-30T02:12:07;96268.59;;;9.33;100.00
57606;BME280;43430;48.204;11.556;2023-04-30T02:14:32;96270.63;;;9.24;100.00
57606;BME280;43430;48.204;11.556;2023-04-30T02:16:57;96275.28;;;9.22;100.00
57606;BME280;43430;48.204;11.556;2023-04-30T02:19:23;96271.03;;;9.27;100.00
57606;BME280;43430;48.204;11.556;2023-04-30T02:21:48;96270.00;;;9.28;100.00
57606;BME280;43430;48.204;11.556;2023-04-30T02:24:14;96264.72;;;9.35;100.00
57606;BME280;43430;48.204;11.556;2023-04-30T02:26:39;96264.75;;;9.22;100.00
57606;BME280;43430;48.204;11.556;2023-04-30T02:29:04;96269.44;;;9.13;100.00
57606;BME280;43430;48.204;11.556;2023-04-30T02:31:30;96272.25;;;9.12;100.00
57606;BME280;43430;48.204;11.556;2023-04-30T02:33:55;96276.31;;;9.14;100.00
57606;BME280;43430;48.204;11.556;2023-04-30T02:36:21;96277.31;;;9.13;100.00
57606;BME280;43430;48.204;11.556;2023-04-30T02:38:46;96276.53;;;9.06;100.00
57606;BME280;43430;48.204;11.556;2023-04-30T02:41:11;96286.66;;;9.09;100.00
57606;BME280;43430;48.204;11.556;2023-04-30T02:43:37;96283.81;;;9.11;100.00
57606;BME280;43430;48.204;11.556;2023-04-30T02:46:02;96289.28;;;9.09;100.00
57606;BME280;43430;48.204;11.556;2023-04-30T02:48:28;96290.66;;;9.12;100.00
57606;BME280;43430;48.204;11.556;2023-04-30T02:50:53;96295.13;;;9.11;100.00
57606;BME280;43430;48.204;11.556;2023-04-30T02:53:18;96292.72;;;9.10;100.00
57606;BME280;43430;48.204;11.556;2023-04-30T02:55:44;96292.72;;;9.10;100.00
57606;BME280;43430;48.204;11.556;2023-04-30T02:58:10;96294.94;;;9.06;100.00
57606;BME280;43430;48.204;11.556;2023-04-30T03:00:35;96297.56;;;9.06;100.00
57606;BME280;43430;48.204;11.556;2023-04-30T03:03:00;96294.13;;;9.06;100.00
57606;BME280;43430;48.204;11.556;2023-04-30T03:05:27;96287.47;;;9.03;100.00
57606;BME280;43430;48.204;11.556;2023-04-30T03:07:52;96290.50;;;9.07;100.00
57606;BME280;43430;48.204;11.556;2023-04-30T03:10:17;96293.53;;;9.03;100.00
57606;BME280;43430;48.204;11.556;2023-04-30T03:12:43;96277.75;;;9.03;100.00
57606;BME280;43430;48.204;11.556;2023-04-30T03:15:08;96287.06;;;9.06;100.00
57606;BME280;43430;48.204;11.556;2023-04-30T03:17:34;96287.44;;;9.10;100.00
57606;BME280;43430;48.204;11.556;2023-04-30T03:20:00;96280.19;;;8.98;100.00
57606;BME280;43430;48.204;11.556;2023-04-30T03:22:25;96286.66;;;8.89;100.00
57606;BME280;43430;48.204;11.556;2023-04-30T03:24:51;96289.91;;;8.91;100.00
57606;BME280;43430;48.204;11.556;2023-04-30T03:27:17;96282.19;;;8.83;100.00
57606;BME280;43430;48.204;11.556;2023-04-30T03:29:42;96287.06;;;8.86;100.00
57606;BME280;43430;48.204;11.556;2023-04-30T03:32:08;96287.28;;;8.78;100.00
57606;BME280;43430;48.204;11.556;2023-04-30T03:34:33;96285.06;;;8.75;100.00
57606;BME280;43430;48.204;11.556;2023-04-30T03:47:03;96284.81;;;8.70;100.00
57606;BME280;43430;48.204;11.556;2023-04-30T03:49:29;96284.03;;;8.63;100.00
57606;BME280;43430;48.204;11.556;2023-04-30T03:51:54;96279.38;;;8.51;100.00
57606;BME280;43430;48.204;11.556;2023-04-30T03:54:23;96282.19;;;8.56;100.00
57606;BME280;43430;48.204;11.556;2023-04-30T03:56:49;96282.22;;;8.50;100.00
57606;BME280;43430;48.204;11.556;2023-04-30T03:59:15;96279.16;;;8.53;100.00
57606;BME280;43430;48.204;11.556;2023-04-30T04:01:40;96275.72;;;8.52;100.00
57606;BME280;43430;48.204;11.556;2023-04-30T04:04:06;96272.91;;;8.54;100.00
57606;BME280;43430;48.204;11.556;2023-04-30T04:06:32;96270.88;;;8.49;100.00
57606;BME280;43430;48.204;11.556;2023-04-30T04:09:00;96266.84;;;8.47;100.00
57606;BME280;43430;48.204;11.556;2023-04-30T04:11:28;96271.06;;;8.41;100.00
57606;BME280;43430;48.204;11.556;2023-04-30T04:13:53;96275.53;;;8.41;100.00
57606;BME280;43430;48.204;11.556;2023-04-30T04:16:20;96272.09;;;8.40;100.00
57606;BME280;43430;48.204;11.556;2023-04-30T04:18:46;96272.69;;;8.42;100.00
57606;BME280;43430;48.204;11.556;2023-04-30T04:21:11;96273.31;;;8.44;100.00
57606;BME280;43430;48.204;11.556;2023-04-30T04:23:37;96273.09;;;8.46;100.00
57606;BME280;43430;48.204;11.556;2023-04-30T04:26:03;96283.44;;;8.54;100.00
57606;BME280;43430;48.204;11.556;2023-04-30T04:28:29;96280.00;;;8.53;100.00
57606;BME280;43430;48.204;11.556;2023-04-30T04:30:54;96285.84;;;8.55;100.00
57606;BME280;43430;48.204;11.556;2023-04-30T04:33:23;96291.50;;;8.52;100.00
57606;BME280;43430;48.204;11.556;2023-04-30T04:35:49;96288.47;;;8.55;100.00
57606;BME280;43430;48.204;11.556;2023-04-30T04:38:14;96295.53;;;8.55;100.00
57606;BME280;43430;48.204;11.556;2023-04-30T04:40:40;96293.13;;;8.53;100.00
57606;BME280;43430;48.204;11.556;2023-04-30T04:43:05;96297.16;;;8.56;100.00
57606;BME280;43430;48.204;11.556;2023-04-30T04:45:31;96302.03;;;8.66;100.00
57606;BME280;43430;48.204;11.556;2023-04-30T04:47:57;96310.94;;;8.71;100.00
57606;BME280;43430;48.204;11.556;2023-04-30T04:50:23;96304.44;;;8.74;100.00
57606;BME280;43430;48.204;11.556;2023-04-30T04:52:48;96300.03;;;8.81;100.00
57606;BME280;43430;48.204;11.556;2023-04-30T04:55:14;96300.03;;;8.81;100.00
57606;BME280;43430;48.204;11.556;2023-04-30T04:57:40;96305.88;;;8.76;100.00
57606;BME280;43430;48.204;11.556;2023-04-30T05:00:07;96307.28;;;8.79;100.00
57606;BME280;43430;48.204;11.556;2023-04-30T05:02:34;96307.91;;;8.81;100.00
57606;BME280;43430;48.204;11.556;2023-04-30T05:04:59;96300.00;;;8.88;100.00
57606;BME280;43430;48.204;11.556;2023-04-30T05:07:25;96303.66;;;8.87;100.00
57606;BME280;43430;48.204;11.556;2023-04-30T05:09:51;96302.25;;;8.77;100.00
57606;BME280;43430;48.204;11.556;2023-04-30T05:12:16;96303.84;;;8.78;100.00
57606;BME280;43430;48.204;11.556;2023-04-30T05:14:42;96303.47;;;8.82;100.00
57606;BME280;43430;48.204;11.556;2023-04-30T05:17:08;96304.44;;;8.80;100.00
57606;BME280;43430;48.204;11.556;2023-04-30T05:19:33;96304.25;;;8.82;100.00
57606;BME280;43430;48.204;11.556;2023-04-30T05:21:59;96311.75;;;8.85;100.00
57606;BME280;43430;48.204;11.556;2023-04-30T05:24:26;96311.94;;;8.84;100.00
57606;BME280;43430;48.204;11.556;2023-04-30T05:26:52;96311.53;;;8.93;100.00
57606;BME280;43430;48.204;11.556;2023-04-30T05:29:17;96317.81;;;8.92;100.00
57606;BME280;43430;48.204;11.556;2023-04-30T05:31:42;96320.22;;;9.00;100.00
57606;BME280;43430;48.204;11.556;2023-04-30T05:34:08;96321.25;;;8.99;100.00
57606;BME280;43430;48.204;11.556;2023-04-30T05:36:33;96318.00;;;8.97;100.00
57606;BME280;43430;48.204;11.556;2023-04-30T05:38:59;96313.75;;;8.96;100.00
57606;BME280;43430;48.204;11.556;2023-04-30T05:41:24;96317.19;;;8.90;100.00
57606;BME280;43430;48.204;11.556;2023-04-30T05:43:50;96315.38;;;8.97;100.00
57606;BME280;43430;48.204;11.556;2023-04-30T05:46:15;96320.44;;;9.06;100.00
57606;BME280;43430;48.204;11.556;2023-04-30T05:48:41;96313.34;;;9.13;100.00
57606;BME280;43430;48.204;11.556;2023-04-30T05:51:06;96311.31;;;9.15;100.00
57606;BME280;43430;48.204;11.556;2023-04-30T05:53:31;96312.50;;;9.25;100.00
57606;BME280;43430;48.204;11.556;2023-04-30T05:55:57;96309.69;;;9.34;100.00
57606;BME280;43430;48.204;11.556;2023-04-30T05:58:23;96310.47;;;9.34;100.00
57606;BME280;43430;48.204;11.556;2023-04-30T06:00:49;96302.34;;;9.42;100.00
57606;BME280;43430;48.204;11.556;2023-04-30T06:03:16;96297.31;;;9.47;100.00
57606;BME280;43430;48.204;11.556;2023-04-30T06:05:41;96289.16;;;9.56;100.00
57606;BME280;43430;48.204;11.556;2023-04-30T06:08:07;96282.06;;;9.63;100.00
57606;BME280;43430;48.204;11.556;2023-04-30T06:10:32;96289.94;;;9.69;100.00
57606;BME280;43430;48.204;11.556;2023-04-30T06:12:57;96277.94;;;9.80;100.00
57606;BME280;43430;48.204;11.556;2023-04-30T06:15:23;96271.88;;;9.73;100.00
57606;BME280;43430;48.204;11.556;2023-04-30T06:17:48;96279.38;;;9.76;100.00
57606;BME280;43430;48.204;11.556;2023-04-30T06:20:13;96279.94;;;9.91;100.00
57606;BME280;43430;48.204;11.556;2023-04-30T06:22:40;96273.78;;;10.04;100.00
57606;BME280;43430;48.204;11.556;2023-04-30T06:25:06;96270.16;;;10.05;100.00
57606;BME280;43430;48.204;11.556;2023-04-30T06:27:31;96271.38;;;10.03;100.00
57606;BME280;43430;48.204;11.556;2023-04-30T06:29:57;96269.91;;;10.07;100.00
57606;BME280;43430;48.204;11.556;2023-04-30T06:32:22;96274.91;;;10.21;100.00
57606;BME280;43430;48.204;11.556;2023-04-30T06:34:48;96270.09;;;10.50;100.00
57606;BME280;43430;48.204;11.556;2023-04-30T06:37:13;96263.84;;;10.44;100.00
57606;BME280;43430;48.204;11.556;2023-04-30T06:39:38;96263.56;;;10.53;100.00
57606;BME280;43430;48.204;11.556;2023-04-30T06:42:04;96263.31;;;10.61;100.00
57606;BME280;43430;48.204;11.556;2023-04-30T06:44:29;96256.44;;;10.60;100.00
57606;BME280;43430;48.204;11.556;2023-04-30T06:46:54;96253.25;;;10.51;100.00
57606;BME280;43430;48.204;11.556;2023-04-30T06:49:20;96256.28;;;10.55;100.00
57606;BME280;43430;48.204;11.556;2023-04-30T06:51:45;96264.19;;;10.55;100.00
57606;BME280;43430;48.204;11.556;2023-04-30T06:54:11;96256.63;;;10.83;100.00
57606;BME280;43430;48.204;11.556;2023-04-30T06:56:36;96248.78;;;11.02;100.00
57606;BME280;43430;48.204;11.556;2023-04-30T06:59:04;96248.28;;;11.30;100.00
57606;BME280;43430;48.204;11.556;2023-04-30T07:01:29;96232.53;;;11.41;100.00
57606;BME280;43430;48.204;11.556;2023-04-30T07:03:55;96235.16;;;11.41;100.00
57606;BME280;43430;48.204;11.556;2023-04-30T07:06:20;96222.19;;;11.40;100.00
57606;BME280;43430;48.204;11.556;2023-04-30T07:08:46;96230.19;;;11.33;100.00
57606;BME280;43430;48.204;11.556;2023-04-30T07:11:12;96235.47;;;11.33;100.00
57606;BME280;43430;48.204;11.556;2023-04-30T07:13:38;96237.44;;;11.38;100.00
57606;BME280;43430;48.204;11.556;2023-04-30T07:16:04;96235.97;;;11.24;100.00
57606;BME280;43430;48.204;11.556;2023-04-30T07:18:30;96243.09;;;11.23;100.00
57606;BME280;43430;48.204;11.556;2023-04-30T07:20:55;96241.03;;;11.25;100.00
57606;BME280;43430;48.204;11.556;2023-04-30T07:23:20;96240.06;;;11.20;100.00
57606;BME280;43430;48.204;11.556;2023-04-30T07:25:46;96240.88;;;11.20;100.00
57606;BME280;43430;48.204;11.556;2023-04-30T07:28:12;96231.00;;;11.15;100.00
57606;BME280;43430;48.204;11.556;2023-04-30T07:30:37;96230.19;;;11.33;100.00
57606;BME280;43430;48.204;11.556;2023-04-30T07:33:02;96228.88;;;11.43;100.00
57606;BME280;43430;48.204;11.556;2023-04-30T07:35:28;96228.09;;;11.72;100.00
57606;BME280;43430;48.204;11.556;2023-04-30T07:37:53;96233.44;;;12.02;100.00
57606;BME280;43430;48.204;11.556;2023-04-30T07:40:19;96220.00;;;12.04;100.00
57606;BME280;43430;48.204;11.556;2023-04-30T07:42:44;96218.13;;;11.93;100.00
57606;BME280;43430;48.204;11.556;2023-04-30T07:45:12;96220.44;;;12.01;100.00
57606;BME280;43430;48.204;11.556;2023-04-30T07:47:38;96217.69;;;12.07;100.00
57606;BME280;43430;48.204;11.556;2023-04-30T07:50:04;96217.78;;;12.01;100.00
57606;BME280;43430;48.204;11.556;2023-04-30T07:52:29;96208.06;;;12.13;100.00
57606;BME280;43430;48.204;11.556;2023-04-30T07:54:55;96214.69;;;12.04;100.00
57606;BME280;43430;48.204;11.556;2023-04-30T07:57:20;96206.03;;;12.15;100.00
57606;BME280;43430;48.204;11.556;2023-04-30T07:59:45;96208.56;;;12.22;100.00
57606;BME280;43430;48.204;11.556;2023-04-30T08:02:11;96206.13;;;12.20;100.00
57606;BME280;43430;48.204;11.556;2023-04-30T08:04:37;96206.38;;;12.19;100.00
57606;BME280;43430;48.204;11.556;2023-04-30T08:07:02;96222.19;;;12.07;100.00
57606;BME280;43430;48.204;11.556;2023-04-30T08:09:28;96211.25;;;12.03;100.00
57606;BME280;43430;48.204;11.556;2023-04-30T08:11:54;96208.88;;;12.14;100.00
57606;BME280;43430;48.204;11.556;2023-04-30T08:14:20;96210.09;;;12.29;100.00
57606;BME280;43430;48.204;11.556;2023-04-30T08:16:46;96213.72;;;12.17;100.00
57606;BME280;43430;48.204;11.556;2023-04-30T08:19:11;96212.31;;;12.14;100.00
57606;BME280;43430;48.204;11.556;2023-04-30T08:21:37;96211.81;;;12.35;100.00
57606;BME280;43430;48.204;11.556;2023-04-30T08:24:02;96211.16;;;12.52;100.00
57606;BME280;43430;48.204;11.556;2023-04-30T08:26:28;96208.63;;;12.57;100.00
57606;BME280;43430;48.204;11.556;2023-04-30T08:28:53;96197.38;;;12.73;100.00
57606;BME280;43430;48.204;11.556;2023-04-30T08:31:19;96199.22;;;12.96;100.00
57606;BME280;43430;48.204;11.556;2023-04-30T08:33:44;96193.00;;;13.02;100.00
57606;BME280;43430;48.204;11.556;2023-04-30T08:36:10;96197.13;;;12.87;100.00
57606;BME280;43430;48.204;11.556;2023-04-30T08:38:35;96190.13;;;12.80;100.00
57606;BME280;43430;48.204;11.556;2023-04-30T08:43:33;96180.78;;;13.13;100.00
57606;BME280;43430;48.204;11.556;2023-04-30T08:45:59;96196.91;;;13.00;100.00
57606;BME280;43430;48.204;11.556;2023-04-30T08:48:26;96188.75;;;12.78;100.00
57606;BME280;43430;48.204;11.556;2023-04-30T08:50:52;96190.47;;;12.72;100.00
57606;BME280;43430;48.204;11.556;2023-04-30T08:53:18;96187.38;;;12.75;100.00
57606;BME280;43430;48.204;11.556;2023-04-30T08:55:46;96189.91;;;12.82;100.00
57606;BME280;43430;48.204;11.556;2023-04-30T08:58:11;96192.31;;;12.83;100.00
57606;BME280;43430;48.204;11.556;2023-04-30T09:00:37;96196.34;;;12.86;100.00
57606;BME280;43430;48.204;11.556;2023-04-30T09:03:04;96201.28;;;12.82;100.00
57606;BME280;43430;48.204;11.556;2023-04-30T09:05:30;96196.91;;;13.00;100.00
57606;BME280;43430;48.204;11.556;2023-04-30T09:07:55;96194.59;;;13.03;100.00
57606;BME280;43430;48.204;11.556;2023-04-30T09:10:21;96194.25;;;13.00;100.00
57606;BME280;43430;48.204;11.556;2023-04-30T09:13:05;96192.28;;;13.07;100.00
57606;BME280;43430;48.204;11.556;2023-04-30T09:15:31;96195.28;;;13.22;100.00
57606;BME280;43430;48.204;11.556;2023-04-30T09:20:35;96202.56;;;13.15;100.00
57606;BME280;43430;48.204;11.556;2023-04-30T09:23:08;96206.81;;;13.16;100.00
57606;BME280;43430;48.204;11.556;2023-04-30T09:25:38;96198.06;;;13.27;100.00
57606;BME280;43430;48.204;11.556;2023-04-30T09:28:09;96197.34;;;13.20;100.00
57606;BME280;43430;48.204;11.556;2023-04-30T09:30:35;96203.22;;;13.46;100.00
57606;BME280;43430;48.204;11.556;2023-04-30T09:33:01;96193.38;;;13.70;100.00
57606;BME280;43430;48.204;11.556;2023-04-30T09:35:34;96185.63;;;13.97;100.00
57606;BME280;43430;48.204;11.556;2023-04-30T09:38:01;96187.13;;;14.05;100.00
57606;BME280;43430;48.204;11.556;2023-04-30T09:40:40;96184.94;;;14.01;100.00
57606;BME280;43430;48.204;11.556;2023-04-30T09:43:07;96186.59;;;13.91;100.00
57606;BME280;43430;48.204;11.556;2023-04-30T09:45:42;96193.03;;;13.95;100.00
57606;BME280;43430;48.204;11.556;2023-04-30T09:48:09;96190.28;;;13.90;100.00
57606;BME280;43430;48.204;11.556;2023-04-30T09:50:39;96184.81;;;13.96;100.00
57606;BME280;43430;48.204;11.556;2023-04-30T09:53:06;96180.44;;;14.02;100.00
57606;BME280;43430;48.204;11.556;2023-04-30T09:55:35;96198.38;;;14.12;100.00
57606;BME280;43430;48.204;11.556;2023-04-30T09:58:11;96180.19;;;14.04;100.00
57606;BME280;43430;48.204;11.556;2023-04-30T10:00:37;96181.38;;;13.96;100.00
57606;BME280;43430;48.204;11.556;2023-04-30T10:03:11;96178.97;;;13.94;100.00
57606;BME280;43430;48.204;11.556;2023-04-30T10:05:40;96183.69;;;13.92;100.00
57606;BME280;43430;48.204;11.556;2023-04-30T10:08:11;96179.97;;;14.05;100.00
57606;BME280;43430;48.204;11.556;2023-04-30T10:10:39;96180.50;;;14.07;100.00
57606;BME280;43430;48.204;11.556;2023-04-30T10:13:09;96181.34;;;14.08;100.00
57606;BME280;43430;48.204;11.556;2023-04-30T10:15:51;96175.13;;;14.02;100.00
57606;BME280;43430;48.204;11.556;2023-04-30T10:18:22;96173.38;;;14.08;100.00
57606;BME280;43430;48.204;11.556;2023-04-30T10:20:52;96177.97;;;14.12;100.00
57606;BME280;43430;48.204;11.556;2023-04-30T10:23:20;96167.69;;;14.16;100.00
57606;BME280;43430;48.204;11.556;2023-04-30T10:25:46;96174.44;;;14.23;100.00
57606;BME280;43430;48.204;11.556;2023-04-30T10:28:12;96168.81;;;14.20;100.00
57606;BME280;43430;48.204;11.556;2023-04-30T10:30:40;96164.13;;;14.10;100.00
57606;BME280;43430;48.204;11.556;2023-04-30T10:33:29;96160.53;;;14.16;100.00
57606;BME280;43430;48.204;11.556;2023-04-30T10:35:59;96157.78;;;14.11;100.00
57606;BME280;43430;48.204;11.556;2023-04-30T10:38:27;96159.63;;;14.28;100.00
57606;BME280;43430;48.204;11.556;2023-04-30T10:41:01;96156.38;;;14.54;100.00
57606;BME280;43430;48.204;11.556;2023-04-30T10:43:28;96152.25;;;14.46;100.00
57606;BME280;43430;48.204;11.556;2023-04-30T10:45:55;96146.16;;;14.46;100.00
57606;BME280;43430;48.204;11.556;2023-04-30T10:48:22;96142.00;;;14.50;100.00
57606;BME280;43430;48.204;11.556;2023-04-30T10:50:55;96148.00;;;14.79;100.00
57606;BME280;43430;48.204;11.556;2023-04-30T10:53:21;96136.84;;;14.77;100.00
57606;BME280;43430;48.204;11.556;2023-04-30T10:56:01;96130.91;;;14.92;100.00
57606;BME280;43430;48.204;11.556;2023-04-30T10:58:36;96131.94;;;15.08;100.00
57606;BME280;43430;48.204;11.556;2023-04-30T11:01:12;96130.19;;;14.96;100.00
57606;BME280;43430;48.204;11.556;2023-04-30T11:04:08;96133.34;;;15.15;100.00
57606;BME280;43430;48.204;11.556;2023-04-30T11:09:47;96125.38;;;15.15;100.00
57606;BME280;43430;48.204;11.556;2023-04-30T11:12:14;96117.53;;;15.26;100.00
57606;BME280;43430;48.204;11.556;2023-04-30T11:14:44;96113.41;;;15.13;100.00
57606;BME280;43430;48.204;11.556;2023-04-30T11:17:12;96108.88;;;15.13;100.00
57606;BME280;43430;48.204;11.556;2023-04-30T11:19:45;96109.50;;;15.20;100.00
57606;BME280;43430;48.204;11.556;2023-04-30T11:25:05;96110.81;;;15.40;100.00
57606;BME280;43430;48.204;11.556;2023-04-30T11:27:32;96117.38;;;15.32;100.00
57606;BME280;43430;48.204;11.556;2023-04-30T11:29:59;96096.91;;;15.33;100.00
57606;BME280;43430;48.204;11.556;2023-04-30T11:32:35;96092.66;;;15.32;100.00
57606;BME280;43430;48.204;11.556;2023-04-30T11:35:03;96101.59;;;15.26;100.00
57606;BME280;43430;48.204;11.556;2023-04-30T11:37:34;96104.38;;;15.36;100.00
57606;BME280;43430;48.204;11.556;2023-04-30T11:40:06;96101.94;;;15.56;100.00
57606;BME280;43430;48.204;11.556;2023-04-30T11:42:33;96093.66;;;15.75;100.00
57606;BME280;43430;48.204;11.556;2023-04-30T11:45:07;96099.34;;;15.83;100.00
57606;BME280;43430;48.204;11.556;2023-04-30T11:50:14;96090.22;;;15.79;100.00
57606;BME280;43430;48.204;11.556;2023-04-30T11:52:41;96095.84;;;15.56;100.00
57606;BME280;43430;48.204;11.556;2023-04-30T11:55:17;96093.06;;;15.24;100.00
57606;BME280;43430;48.204;11.556;2023-04-30T11:57:45;96092.66;;;15.32;100.00
57606;BME280;43430;48.204;11.556;2023-04-30T12:00:24;96096.91;;;15.33;100.00
57606;BME280;43430;48.204;11.556;2023-04-30T12:02:51;96095.06;;;15.11;100.00
57606;BME280;43430;48.204;11.556;2023-04-30T12:05:21;96093.44;;;15.10;100.00
57606;BME280;43430;48.204;11.556;2023-04-30T12:07:48;96091.31;;;15.07;100.00
57606;BME280;43430;48.204;11.556;2023-04-30T12:10:14;96094.44;;;15.04;100.00
57606;BME280;43430;48.204;11.556;2023-04-30T12:12:42;96094.19;;;15.06;100.00
57606;BME280;43430;48.204;11.556;2023-04-30T12:15:15;96087.75;;;15.24;100.00
57606;BME280;43430;48.204;11.556;2023-04-30T12:17:41;96089.63;;;15.45;100.00
57606;BME280;43430;48.204;11.556;2023-04-30T12:20:07;96089.50;;;15.35;100.00
57606;BME280;43430;48.204;11.556;2023-04-30T12:22:33;96083.63;;;15.33;100.00
57606;BME280;43430;48.204;11.556;2023-04-30T12:25:05;96094.56;;;15.14;100.00
57606;BME280;43430;48.204;11.556;2023-04-30T12:27:34;96086.97;;;15.23;100.00
57606;BME280;43430;48.204;11.556;2023-04-30T12:30:04;96092.09;;;15.30;100.00
57606;BME280;43430;48.204;11.556;2023-04-30T12:32:37;96096.97;;;15.16;100.00
57606;BME280;43430;48.204;11.556;2023-04-30T12:35:03;96091.47;;;15.01;100.00
57606;BME280;43430;48.204;11.556;2023-04-30T12:37:29;96087.03;;;15.06;100.00
57606;BME280;43430;48.204;11.556;2023-04-30T12:39:55;96084.00;;;14.98;100.00
57606;BME280;43430;48.204;11.556;2023-04-30T12:42:20;96079.50;;;14.98;100.00
57606;BME280;43430;48.204;11.556;2023-04-30T12:44:46;96082.91;;;15.15;100.00
57606;BME280;43430;48.204;11.556;2023-04-30T12:47:13;96083.25;;;15.24;100.00
57606;BME280;43430;48.204;11.556;2023-04-30T12:49:38;96085.56;;;15.15;100.00
57606;BME280;43430;48.204;11.556;2023-04-30T12:52:11;96076.41;;;15.06;100.00
57606;BME280;43430;48.204;11.556;2023-04-30T12:54:38;96073.44;;;15.25;100.00
57606;BME280;43430;48.204;11.556;2023-04-30T12:57:05;96069.06;;;15.62;100.00
57606;BME280;43430;48.204;11.556;2023-04-30T12:59:34;96059.06;;;15.70;100.00
57606;BME280;43430;48.204;11.556;2023-04-30T13:02:07;96064.38;;;15.70;100.00
57606;BME280;43430;48.204;11.556;2023-04-30T13:04:33;96058.44;;;15.62;100.00
57606;BME280;43430;48.204;11.556;2023-04-30T13:07:00;96049.47;;;15.69;100.00
57606;BME280;43430;48.204;11.556;2023-04-30T13:09:25;96050.28;;;15.69;100.00
57606;BME280;43430;48.204;11.556;2023-04-30T13:11:50;96042.91;;;15.76;100.00
57606;BME280;43430;48.204;11.556;2023-04-30T13:14:16;96037.44;;;15.93;100.00
57606;BME280;43430;48.204;11.556;2023-04-30T13:16:42;96041.50;;;16.01;100.00
57606;BME280;43430;48.204;11.556;2023-04-30T13:19:08;96035.81;;;15.87;100.00
57606;BME280;43430;48.204;11.556;2023-04-30T13:21:33;96038.88;;;15.74;100.00
57606;BME280;43430;48.204;11.556;2023-04-30T13:23:59;96035.09;;;15.42;100.00